Juazeiro do Norte, Brazil
Current Conditions -  °F | °C
As of 3:00 AM on Sunday 26 Oct 2014 (Local Time) from SBJU Reporting Station
Few Clouds Few Clouds  
Wind Chill: 79°   Ceiling: Unl
Heat Index: 80°   Visibility: 6mi
Dew Point: 61°   Wind: 5mph
Humidity: 54%   Direction: 80°E
Pressure: 29.94"   Gusts: NA
Location:  7.21°S, 39.32°W
Report Text: SBJU 260600Z 08004KT 9999 FEW020 26/16 Q1014
Loading
Personal Weather Stations






























Interactive Weather Map
Tropical Storm Tracking
New forecast layout! Learn more

10-Day Weather Forecast

Advertisements
Track Severe Weather on mobile